Share

Alliance, NE

Panhandle Coop/Box Butte Co (KNEALLIA3) Elev 4124 ft | 42.22 °N, 102.98 °W | Change Station

Current weather conditions updated 14 minutes ago

Scattered Clouds
Scattered Clouds
40.7 °F
Feels Like 33 °F
N
14.0
Wind Variable Wind from East
Gusts 20.0 mph
Sunrise 6:07 AM
Sunset 7:35 PM
Moon Waning Gibbous

Today is forecast to be Warmer than yesterday.

Pressure 30.10 in
Visibility 10.0 miles
Clouds Scattered Clouds 2600 ft
Windchill 33 °F
Dew Point 34 °F
Humidity 77%
Rainfall 0.00 in
Snow Depth Not available.
UV 8 out of 16
Pollen 9.10 out of 12
Air Quality Not available.
Flu Activity Sporadic
METAR KBFF 171853Z AUTO 13012KT 10SM SCT026 10/02 A3009 RMK AO2 SLP193 T01000022

More Conditions Fewer Conditions

Pressure 30.10 in
Visibility 10.0 miles
Clouds Scattered Clouds 2600 ft
Windchill 33 °F
Dew Point 34 °F
Humidity 77%
Rainfall 0.00 in
Snow Depth Not available.
UV 8 out of 16
Pollen 9.10 out of 12
Air Quality Not available.
Flu Activity Sporadic
METAR KBFF 171853Z AUTO 13012KT 10SM SCT026 10/02 A3009 RMK AO2 SLP193 T01000022

More Conditions Fewer Conditions

10-Day Forecast

Almanac

Astronomy

Apr. 17, 2014 Rise Set
Actual Time 6:07 AM MDT 7:35 PM MDT
Civil Twilight 5:38 AM MDT 8:04 PM MDT
Nautical Twilight 5:03 AM MDT 8:39 PM MDT
Astronomical Twilight 4:26 AM MDT 9:17 PM MDT
Moon 10:25 PM MDT 7:39 AM MDT
Length of Visible Light 14h 26m
Length of Day
13h 27m
Tomorrow will be 2m 40s longer.
Waning Gibbous, 93% of the Moon is Illuminated
Today
Waning Gibbous
Apr 22
Last Quarter
Apr 29
New
May 6
First Quarter
May 14
Full

Today's Extremes

State Highs State Lows

Community

  • New Day
    New Day
  • Lake Michigan Sunrise
    Lake Michigan Sunrise
  • sunset from izmir, narlıdere
    sunset from izmir, narlıdere
  • oregon cherry
    oregon cherry
  • Sunset over the Bay
    Sunset over the Bay

WunderPhotos

Upload Photos

1,702,106 photos uploaded!

Nearby

Snow Depth

Station Depth Elevation
No new snow has been reported.

Coastal Water Temperatures

Place Temperature
No Stations Reporting

Earthquake Activity

City Distance Mag. Time & Date
No recent earthquake activity has been reported nearby.
Minimum magnitude displayed is 2.5.

Nearby Weather Stations

Station Location Temp. Windchill Dew Point Humidity Wind Precip. Elev Updated Type
Panhandle Coop/Box Butte Co, Alliance, NE 40.7 °F 33 °F 34 °F 77% East  at  14.0 mph 0.00 in / hr 4124 ft 1:33 PM MDT Normal
Wayne Rd., Alliance, NE 44.4 °F 36 °F 36 °F 73% SSW  at  19.0 mph 0.00 in / hr 4078 ft 1:41 PM MDT Normal

Show More Stations Show Fewer Stations

What do you think?

We're not finished. Please let us know what you like, what you don't like, and what you are still missing.